createdAt,value
2022-08-21T00:00:35.850Z,100746.31
2022-08-21T00:03:09.011Z,100743.25
2022-08-21T00:05:38.948Z,100741.16
2022-08-21T00:08:07.105Z,100739.06
2022-08-21T00:10:35.481Z,100733.38
2022-08-21T00:13:04.094Z,100741.97
2022-08-21T00:15:33.940Z,100726.56
2022-08-21T00:18:01.508Z,100727.19
2022-08-21T00:20:29.140Z,100724.88
2022-08-21T00:22:57.360Z,100721.03
2022-08-21T00:25:26.148Z,100717.91
2022-08-21T00:27:54.143Z,100722.16
2022-08-21T00:30:23.590Z,100712.00
2022-08-21T00:32:53.040Z,100713.44
2022-08-21T00:35:22.943Z,100726.03
2022-08-21T00:37:50.958Z,100721.09
2022-08-21T00:40:21.047Z,100724.66
2022-08-21T00:42:53.164Z,100727.34
2022-08-21T00:45:21.647Z,100724.06
2022-08-21T00:47:49.275Z,100731.00
2022-08-21T00:50:22.015Z,100720.69
2022-08-21T00:52:50.420Z,100727.00
2022-08-21T00:55:18.003Z,100728.88
2022-08-21T00:57:48.346Z,100724.66
2022-08-21T01:00:30.314Z,100731.56
2022-08-21T01:02:58.557Z,100724.81
2022-08-21T01:05:28.031Z,100726.78
2022-08-21T01:07:57.988Z,100722.53
2022-08-21T01:10:25.830Z,100727.13
2022-08-21T01:12:54.277Z,100722.53
2022-08-21T01:15:23.059Z,100725.25
2022-08-21T01:17:51.226Z,100729.97
2022-08-21T01:20:19.277Z,100723.19
2022-08-21T01:22:48.158Z,100730.56
2022-08-21T01:25:17.932Z,100724.28
2022-08-21T01:27:45.754Z,100729.41
2022-08-21T01:33:59.586Z,100727.25
2022-08-21T01:36:27.980Z,100722.94
2022-08-21T01:38:57.005Z,100733.16
2022-08-21T01:41:24.487Z,100724.78
2022-08-21T01:43:52.111Z,100723.66
2022-08-21T01:46:19.868Z,100731.34
2022-08-21T01:48:47.738Z,100721.66
2022-08-21T01:51:16.085Z,100721.44
2022-08-21T01:53:43.591Z,100720.53
2022-08-21T01:56:14.491Z,100720.06
2022-08-21T01:58:43.026Z,100723.97
2022-08-21T02:01:11.037Z,100716.44
2022-08-21T02:03:38.708Z,100716.75
2022-08-21T02:06:07.721Z,100712.88
2022-08-21T02:08:36.075Z,100714.25
2022-08-21T02:11:03.775Z,100711.91
2022-08-21T02:13:32.629Z,100713.38
2022-08-21T02:16:00.202Z,100710.47
2022-08-21T02:18:27.895Z,100712.31
2022-08-21T02:20:56.689Z,100711.84
2022-08-21T02:23:26.851Z,100710.78
2022-08-21T02:25:55.352Z,100712.84
2022-08-21T02:28:23.381Z,100705.50
2022-08-21T02:30:52.700Z,100710.22
2022-08-21T02:33:20.653Z,100705.44
2022-08-21T02:35:48.827Z,100712.50
2022-08-21T02:38:19.298Z,100712.06
2022-08-21T02:40:51.074Z,100704.56
2022-08-21T02:43:19.515Z,100711.06
2022-08-21T02:45:47.436Z,100709.00
2022-08-21T02:48:18.363Z,100703.28
2022-08-21T02:50:47.909Z,100709.06
2022-08-21T02:53:17.430Z,100706.00
2022-08-21T02:55:46.340Z,100709.88
2022-08-21T02:58:14.548Z,100709.34
2022-08-21T03:00:42.154Z,100711.69
2022-08-21T03:03:09.716Z,100714.59
2022-08-21T03:05:39.101Z,100699.25
2022-08-21T03:08:10.425Z,100706.06
2022-08-21T03:10:38.727Z,100706.47
2022-08-21T03:13:06.644Z,100696.50
2022-08-21T03:15:34.159Z,100694.63
2022-08-21T03:18:01.696Z,100691.31
2022-08-21T03:20:30.417Z,100693.38
2022-08-21T03:22:59.636Z,100701.81
2022-08-21T03:25:39.802Z,100709.09
2022-08-21T03:28:10.589Z,100709.13
2022-08-21T03:30:40.805Z,100711.47
2022-08-21T03:33:08.317Z,100710.69
2022-08-21T03:35:35.896Z,100711.44
2022-08-21T03:38:04.794Z,100712.25
2022-08-21T03:40:32.540Z,100712.66
2022-08-21T03:43:00.244Z,100712.28
2022-08-21T03:45:28.525Z,100716.88
2022-08-21T03:47:58.227Z,100712.53
2022-08-21T03:50:27.018Z,100711.69
2022-08-21T03:52:54.629Z,100710.44
2022-08-21T03:55:23.975Z,100718.06
2022-08-21T03:57:51.551Z,100711.06
2022-08-21T04:00:19.805Z,100718.31
2022-08-21T04:02:48.617Z,100720.59
2022-08-21T04:05:27.832Z,100724.31
2022-08-21T04:07:56.847Z,100722.03
2022-08-21T04:10:26.677Z,100732.16
2022-08-21T04:12:54.396Z,100729.66
2022-08-21T04:15:23.059Z,100730.69
2022-08-21T04:17:50.569Z,100737.31
2022-08-21T04:20:18.845Z,100738.75
2022-08-21T04:22:46.741Z,100737.94
2022-08-21T04:25:15.517Z,100743.47
2022-08-21T04:27:44.387Z,100739.13
2022-08-21T04:30:13.731Z,100745.97
2022-08-21T04:32:44.111Z,100745.13
2022-08-21T04:35:12.726Z,100748.00
2022-08-21T04:37:42.359Z,100752.97
2022-08-21T04:40:12.748Z,100755.22
2022-08-21T04:42:46.968Z,100758.91
2022-08-21T04:45:20.870Z,100763.50
2022-08-21T04:47:52.876Z,100761.19
2022-08-21T04:50:21.036Z,100765.75
2022-08-21T04:52:48.950Z,100765.34
2022-08-21T04:55:18.237Z,100761.81
2022-08-21T04:57:48.620Z,100768.84
2022-08-21T05:00:19.807Z,100767.59
2022-08-21T05:02:48.362Z,100767.78
2022-08-21T05:05:16.198Z,100773.09
2022-08-21T05:07:44.785Z,100778.03
2022-08-21T05:10:13.902Z,100775.34
2022-08-21T05:12:42.678Z,100771.66
2022-08-21T05:15:13.914Z,100770.50
2022-08-21T05:17:41.897Z,100781.19
2022-08-21T05:20:10.092Z,100777.28
2022-08-21T05:22:37.797Z,100783.25
2022-08-21T05:25:10.410Z,100781.81
2022-08-21T05:27:39.115Z,100784.06
2022-08-21T05:30:08.337Z,100784.66
2022-08-21T05:32:37.459Z,100784.66
2022-08-21T05:35:05.369Z,100786.50
2022-08-21T05:37:33.115Z,100793.31
2022-08-21T05:40:05.187Z,100788.16
2022-08-21T05:42:54.431Z,100793.47
2022-08-21T05:45:42.138Z,100800.44
2022-08-21T05:48:14.731Z,100805.34
2022-08-21T05:50:42.796Z,100798.13
2022-08-21T05:53:11.160Z,100797.28
2022-08-21T05:55:44.907Z,100796.56
2022-08-21T05:58:13.284Z,100798.19
2022-08-21T06:00:41.008Z,100799.34
2022-08-21T06:03:14.378Z,100798.47
2022-08-21T06:05:41.999Z,100804.22
2022-08-21T06:08:09.489Z,100805.38
2022-08-21T06:10:37.009Z,100799.97
2022-08-21T06:13:05.538Z,100801.56
2022-08-21T06:15:33.047Z,100800.25
2022-08-21T06:18:00.580Z,100803.09
2022-08-21T06:20:29.766Z,100801.56
2022-08-21T06:22:57.525Z,100799.75
2022-08-21T06:25:25.446Z,100803.00
2022-08-21T06:27:53.232Z,100803.53
2022-08-21T06:30:21.142Z,100806.97
2022-08-21T06:32:48.615Z,100805.66
2022-08-21T06:35:16.115Z,100803.47
2022-08-21T06:37:44.915Z,100803.69
2022-08-21T06:40:13.264Z,100799.81
2022-08-21T06:42:41.307Z,100792.56
2022-08-21T06:45:10.955Z,100790.84
2022-08-21T06:47:38.536Z,100794.03
2022-08-21T06:50:08.426Z,100794.91
2022-08-21T06:52:36.149Z,100798.09
2022-08-21T06:55:07.406Z,100797.75
2022-08-21T06:57:34.960Z,100795.75
2022-08-21T07:00:02.697Z,100794.09
2022-08-21T07:02:30.491Z,100792.91
2022-08-21T07:04:58.061Z,100787.28
2022-08-21T07:07:25.527Z,100791.41
2022-08-21T07:09:53.072Z,100794.94
2022-08-21T07:12:21.867Z,100790.34
2022-08-21T07:14:49.619Z,100789.88
2022-08-21T07:17:17.100Z,100790.81
2022-08-21T07:19:44.629Z,100785.16
2022-08-21T07:22:12.370Z,100789.84
2022-08-21T07:24:39.856Z,100792.63
2022-08-21T07:27:10.036Z,100797.03
2022-08-21T07:29:39.174Z,100786.31
2022-08-21T07:32:07.625Z,100782.31
2022-08-21T07:34:35.129Z,100790.38
2022-08-21T07:37:06.402Z,100779.56
2022-08-21T07:39:38.352Z,100783.41
2022-08-21T07:42:08.407Z,100778.22
2022-08-21T07:44:36.309Z,100778.56
2022-08-21T07:47:05.650Z,100779.47
2022-08-21T07:49:33.133Z,100772.00
2022-08-21T07:52:00.652Z,100767.56
2022-08-21T07:54:33.463Z,100775.47
2022-08-21T07:57:02.598Z,100764.22
2022-08-21T07:59:30.382Z,100761.59
2022-08-21T08:01:58.373Z,100759.88
2022-08-21T08:04:27.293Z,100754.88
2022-08-21T08:06:54.820Z,100748.22
2022-08-21T08:09:22.376Z,100749.94
2022-08-21T08:11:49.907Z,100746.00
2022-08-21T08:14:18.082Z,100754.16
2022-08-21T08:16:46.059Z,100752.06
2022-08-21T08:19:13.593Z,100759.63
2022-08-21T08:21:42.520Z,100759.00
2022-08-21T08:24:19.216Z,100756.66
2022-08-21T08:26:53.699Z,100751.44
2022-08-21T08:29:22.034Z,100750.16
2022-08-21T08:31:49.581Z,100752.44
2022-08-21T08:34:25.210Z,100741.91
2022-08-21T08:36:54.872Z,100742.84
2022-08-21T08:39:27.059Z,100732.59
2022-08-21T08:42:01.060Z,100729.03
2022-08-21T08:44:29.699Z,100734.22
2022-08-21T08:46:58.664Z,100722.25
2022-08-21T08:49:29.723Z,100732.75
2022-08-21T08:52:02.538Z,100722.97
2022-08-21T08:54:33.160Z,100728.09
2022-08-21T08:57:01.061Z,100728.59
2022-08-21T08:59:34.641Z,100726.75
2022-08-21T09:02:02.154Z,100720.50
2022-08-21T09:04:30.936Z,100715.88
2022-08-21T09:07:07.300Z,100719.38
2022-08-21T09:09:45.027Z,100719.47
2022-08-21T09:12:18.172Z,100717.75
2022-08-21T09:14:55.717Z,100716.38
2022-08-21T09:17:42.334Z,100710.50
2022-08-21T09:20:16.468Z,100703.88
2022-08-21T09:23:00.603Z,100706.06
2022-08-21T09:25:30.082Z,100701.00
2022-08-21T09:27:57.588Z,100699.47
2022-08-21T09:30:29.769Z,100694.47
2022-08-21T09:32:57.822Z,100702.41
2022-08-21T09:35:26.841Z,100702.41
2022-08-21T09:37:59.087Z,100708.09
2022-08-21T09:40:33.737Z,100698.34
2022-08-21T09:43:03.794Z,100705.72
2022-08-21T09:45:33.837Z,100701.69
2022-08-21T09:48:11.845Z,100701.31
2022-08-21T09:50:39.877Z,100699.94
2022-08-21T09:53:18.363Z,100703.25
2022-08-21T09:56:08.586Z,100705.47
2022-08-21T09:58:38.270Z,100699.50
2022-08-21T10:01:07.916Z,100688.34
2022-08-21T10:03:35.505Z,100691.94
2022-08-21T10:06:09.564Z,100685.69
2022-08-21T10:08:41.723Z,100684.34
2022-08-21T10:11:11.193Z,100687.66
2022-08-21T10:13:49.515Z,100676.25
2022-08-21T10:16:29.006Z,100671.31
2022-08-21T10:19:04.938Z,100670.78
2022-08-21T10:21:36.722Z,100662.09
2022-08-21T10:24:09.540Z,100668.88
2022-08-21T10:26:46.399Z,100668.88
2022-08-21T10:29:22.424Z,100663.97
2022-08-21T10:31:56.311Z,100656.34
2022-08-21T10:34:35.281Z,100662.63
2022-08-21T10:37:10.598Z,100658.00
2022-08-21T10:39:48.167Z,100659.91
2022-08-21T10:42:31.614Z,100663.97
2022-08-21T10:45:09.589Z,100657.16
2022-08-21T10:47:42.677Z,100660.16
2022-08-21T10:50:15.071Z,100644.63
2022-08-21T10:52:59.303Z,100651.44
2022-08-21T10:55:34.177Z,100640.84
2022-08-21T10:58:06.837Z,100643.84
2022-08-21T11:00:38.466Z,100647.94
2022-08-21T11:03:09.521Z,100645.72
2022-08-21T11:05:41.730Z,100629.09
2022-08-21T11:08:15.883Z,100628.00
2022-08-21T11:10:57.743Z,100629.25
2022-08-21T11:13:31.776Z,100615.78
2022-08-21T11:16:07.941Z,100624.25
2022-08-21T11:18:39.342Z,100613.84
2022-08-21T11:21:22.299Z,100611.03
2022-08-21T11:24:04.432Z,100612.78
2022-08-21T11:26:45.568Z,100608.16
2022-08-21T11:29:22.047Z,100613.81
2022-08-21T11:31:57.299Z,100610.78
2022-08-21T11:34:35.397Z,100603.88
2022-08-21T11:37:07.043Z,100606.59
2022-08-21T11:39:40.236Z,100608.47
2022-08-21T11:42:17.701Z,100605.50
2022-08-21T11:44:51.787Z,100595.34
2022-08-21T11:47:27.424Z,100599.56
2022-08-21T11:50:05.262Z,100592.03
2022-08-21T11:52:48.838Z,100590.31
2022-08-21T11:55:23.494Z,100584.44
2022-08-21T11:57:56.354Z,100578.03
2022-08-21T12:00:28.850Z,100578.50
2022-08-21T12:03:01.074Z,100578.72
2022-08-21T12:05:32.458Z,100579.63
2022-08-21T12:08:06.665Z,100583.06
2022-08-21T12:10:36.846Z,100579.00
2022-08-21T12:13:36.733Z,100574.66
2022-08-21T12:16:13.675Z,100572.53
2022-08-21T12:18:41.523Z,100576.41
2022-08-21T12:21:26.233Z,100575.81
2022-08-21T12:24:03.753Z,100576.88
2022-08-21T12:26:33.443Z,100573.31
2022-08-21T12:29:25.294Z,100562.94
2022-08-21T12:32:04.525Z,100566.44
2022-08-21T12:34:41.820Z,100560.06
2022-08-21T12:37:28.280Z,100558.66
2022-08-21T12:40:01.325Z,100567.09
2022-08-21T12:42:44.259Z,100550.66
2022-08-21T12:45:44.357Z,100553.53
2022-08-21T12:48:20.785Z,100551.69
2022-08-21T12:51:05.616Z,100559.31
2022-08-21T12:53:50.279Z,100556.75
2022-08-21T12:56:22.758Z,100548.16
2022-08-21T12:59:05.272Z,100545.03
2022-08-21T13:01:50.094Z,100554.41
2022-08-21T13:04:32.800Z,100550.00
2022-08-21T13:07:29.764Z,100547.50
2022-08-21T13:10:07.347Z,100544.16
2022-08-21T13:12:51.121Z,100541.03
2022-08-21T13:16:18.912Z,100536.13
2022-08-21T13:19:41.578Z,100538.69
2022-08-21T13:23:37.894Z,100524.41
2022-08-21T13:27:43.901Z,100532.13
2022-08-21T13:33:25.470Z,100536.84
2022-08-21T13:36:01.835Z,100522.31
2022-08-21T13:40:12.048Z,100521.28
2022-08-21T13:43:24.242Z,100508.50
2022-08-21T13:49:29.424Z,100506.69
2022-08-21T13:53:00.543Z,100506.78
2022-08-21T13:56:47.245Z,100494.19
2022-08-21T13:59:08.236Z,100498.78
2022-08-21T14:02:13.128Z,100494.94
2022-08-21T14:04:53.016Z,100497.75
2022-08-21T14:07:24.173Z,100500.03
2022-08-21T14:09:52.052Z,100493.19
2022-08-21T14:12:26.825Z,100491.88
2022-08-21T14:14:55.787Z,100481.41
2022-08-21T14:17:33.707Z,100486.72
2022-08-21T14:20:01.793Z,100493.41
2022-08-21T14:22:33.459Z,100473.16
2022-08-21T14:25:03.036Z,100474.66
2022-08-21T14:27:32.644Z,100476.47
2022-08-21T14:30:02.262Z,100478.28
2022-08-21T14:32:32.853Z,100476.09
2022-08-21T14:35:00.425Z,100477.28
2022-08-21T14:37:27.993Z,100473.81
2022-08-21T14:39:55.560Z,100469.59
2022-08-21T14:42:23.176Z,100476.09
2022-08-21T14:44:52.425Z,100459.38
2022-08-21T14:47:19.897Z,100453.88
2022-08-21T14:49:47.433Z,100460.75
2022-08-21T14:52:14.919Z,100456.66
2022-08-21T14:54:42.360Z,100457.56
2022-08-21T14:57:12.956Z,100456.34
2022-08-21T14:59:40.979Z,100454.91
2022-08-21T15:02:11.439Z,100453.34
2022-08-21T15:04:39.049Z,100451.09
2022-08-21T15:07:06.719Z,100457.81
2022-08-21T15:09:34.545Z,100462.31
2022-08-21T15:12:03.984Z,100458.28
2022-08-21T15:14:33.082Z,100451.34
2022-08-21T15:17:00.741Z,100455.53
2022-08-21T15:19:30.538Z,100454.84
2022-08-21T15:21:58.528Z,100447.81
2022-08-21T15:24:26.273Z,100459.00
2022-08-21T15:26:54.837Z,100456.63
2022-08-21T15:29:23.070Z,100459.28
2022-08-21T15:31:56.628Z,100448.13
2022-08-21T15:34:27.126Z,100456.44
2022-08-21T15:36:57.492Z,100454.22
2022-08-21T15:39:31.060Z,100448.41
2022-08-21T15:41:59.002Z,100443.41
2022-08-21T15:44:27.173Z,100440.94
2022-08-21T15:46:54.745Z,100453.28
2022-08-21T15:49:22.456Z,100441.75
2022-08-21T15:51:49.971Z,100439.31
2022-08-21T15:54:19.010Z,100440.88
2022-08-21T15:56:48.371Z,100440.06
2022-08-21T15:59:18.093Z,100439.47
2022-08-21T16:01:46.702Z,100432.94
2022-08-21T16:04:28.693Z,100436.00
2022-08-21T16:07:01.937Z,100427.41
2022-08-21T16:09:34.215Z,100438.69
2022-08-21T16:12:02.166Z,100441.22
2022-08-21T16:14:30.791Z,100441.19
2022-08-21T16:16:58.356Z,100435.91
2022-08-21T16:19:27.085Z,100437.75
2022-08-21T16:21:54.560Z,100432.28
2022-08-21T16:24:22.080Z,100424.44
2022-08-21T16:26:57.596Z,100424.03
2022-08-21T16:29:26.397Z,100421.41
2022-08-21T16:31:54.693Z,100426.72
2022-08-21T16:34:22.272Z,100429.47
2022-08-21T16:36:49.770Z,100417.09
2022-08-21T16:39:17.344Z,100417.38
2022-08-21T16:41:45.260Z,100415.53
2022-08-21T16:44:14.122Z,100412.09
2022-08-21T16:46:42.806Z,100413.38
2022-08-21T16:49:10.971Z,100403.94
2022-08-21T16:51:38.663Z,100408.13
2022-08-21T16:54:06.303Z,100408.59
2022-08-21T16:56:34.682Z,100409.34
2022-08-21T16:59:05.805Z,100404.16
2022-08-21T17:01:35.446Z,100409.94
2022-08-21T17:04:04.189Z,100404.88
2022-08-21T17:06:31.901Z,100401.28
2022-08-21T17:09:01.041Z,100402.34
2022-08-21T17:11:38.046Z,100401.13
2022-08-21T17:14:08.858Z,100392.13
2022-08-21T17:16:37.837Z,100385.97
2022-08-21T17:19:06.187Z,100398.22
2022-08-21T17:21:33.837Z,100397.09
2022-08-21T17:24:01.473Z,100404.41
2022-08-21T17:26:28.984Z,100401.88
2022-08-21T17:28:56.589Z,100402.88
2022-08-21T17:31:24.163Z,100403.88
2022-08-21T17:33:54.475Z,100403.59
2022-08-21T17:36:26.648Z,100399.69
2022-08-21T17:38:54.244Z,100395.25
2022-08-21T17:41:22.334Z,100392.47
2022-08-21T17:43:51.455Z,100392.84
2022-08-21T17:46:21.775Z,100400.06
2022-08-21T17:48:49.256Z,100389.38
2022-08-21T17:51:31.563Z,100395.44
2022-08-21T17:54:26.728Z,100393.97
2022-08-21T17:57:16.843Z,100392.50
2022-08-21T18:00:15.141Z,100405.63
2022-08-21T18:03:12.918Z,100398.50
2022-08-21T18:06:14.480Z,100404.63
2022-08-21T18:08:55.933Z,100410.97
2022-08-21T18:11:41.933Z,100410.84
2022-08-21T18:14:27.927Z,100412.69
2022-08-21T18:56:31.765Z,100451.06
2022-08-21T18:59:15.441Z,100450.28
2022-08-21T19:02:12.870Z,100463.31
2022-08-21T19:04:57.880Z,100460.06
2022-08-21T19:07:56.523Z,100458.78
2022-08-21T19:10:37.937Z,100456.69
2022-08-21T19:13:32.812Z,100464.09
2022-08-21T19:22:32.167Z,100471.59
2022-08-21T19:25:14.222Z,100467.25
2022-08-21T19:28:11.095Z,100474.91
2022-08-21T19:31:16.603Z,100474.38
2022-08-21T19:34:12.076Z,100471.06
2022-08-21T19:41:25.778Z,100478.09
2022-08-21T19:43:49.379Z,100479.13
2022-08-21T19:47:04.705Z,100469.84
2022-08-21T19:53:31.906Z,100486.19
2022-08-21T19:56:57.532Z,100481.50
2022-08-21T20:03:09.848Z,100481.91
2022-08-21T20:20:23.256Z,100477.97
2022-08-21T20:23:30.478Z,100484.28
2022-08-21T20:26:32.266Z,100485.63
2022-08-21T20:29:25.881Z,100482.34
2022-08-21T20:32:04.435Z,100484.50
2022-08-21T20:34:46.693Z,100484.53
2022-08-21T20:37:36.726Z,100489.47
2022-08-21T20:40:11.182Z,100489.66
2022-08-21T20:42:55.137Z,100484.25
2022-08-21T20:45:28.250Z,100486.78
2022-08-21T20:48:14.423Z,100497.00
2022-08-21T20:55:14.432Z,100497.25
2022-08-21T21:01:55.123Z,100507.47
2022-08-21T21:05:01.548Z,100501.97
2022-08-21T21:07:44.581Z,100503.47
2022-08-21T21:16:52.586Z,100500.75
2022-08-21T21:19:47.692Z,100506.31
2022-08-21T21:22:38.563Z,100508.16
2022-08-21T21:25:40.512Z,100509.66
2022-08-21T21:28:16.243Z,100517.53
2022-08-21T21:31:14.308Z,100513.06
2022-08-21T21:33:57.405Z,100517.44
2022-08-21T21:37:14.615Z,100512.84
2022-08-21T21:40:05.668Z,100521.09
2022-08-21T21:43:04.421Z,100527.63
2022-08-21T21:46:22.853Z,100521.88
2022-08-21T21:49:22.252Z,100531.69
2022-08-21T21:59:55.261Z,100529.28
2022-08-21T22:02:51.639Z,100529.88
2022-08-21T22:06:09.838Z,100527.63
2022-08-21T22:09:03.088Z,100527.09
2022-08-21T22:13:09.893Z,100539.63
2022-08-21T22:15:29.922Z,100533.94
2022-08-21T22:18:14.227Z,100537.13
2022-08-21T22:21:40.140Z,100538.16
2022-08-21T22:24:52.075Z,100524.84
2022-08-21T22:28:49.494Z,100531.69
2022-08-21T22:31:29.051Z,100541.69
2022-08-21T22:34:38.314Z,100530.00
2022-08-21T22:38:12.293Z,100536.47
2022-08-21T22:41:17.901Z,100527.75
2022-08-21T22:44:52.756Z,100527.97
2022-08-21T22:49:10.133Z,100534.47
2022-08-21T22:52:29.026Z,100535.53
2022-08-21T22:55:43.940Z,100528.66
2022-08-21T22:59:34.741Z,100530.84
2022-08-21T23:01:58.270Z,100538.53
2022-08-21T23:04:27.171Z,100533.69
2022-08-21T23:06:56.229Z,100531.34
2022-08-21T23:09:33.370Z,100540.44
2022-08-21T23:12:21.214Z,100542.03
2022-08-21T23:14:54.848Z,100540.63
2022-08-21T23:17:32.795Z,100545.47
2022-08-21T23:20:09.926Z,100546.31
2022-08-21T23:22:41.236Z,100546.56
2022-08-21T23:25:26.900Z,100543.53
2022-08-21T23:28:04.441Z,100542.13
2022-08-21T23:30:37.848Z,100549.97
2022-08-21T23:33:19.692Z,100533.81
2022-08-21T23:36:09.549Z,100537.69
2022-08-21T23:38:48.426Z,100536.56
2022-08-21T23:41:34.210Z,100539.16
2022-08-21T23:44:17.246Z,100540.50
2022-08-21T23:46:54.217Z,100547.81
2022-08-21T23:49:34.241Z,100535.25
2022-08-21T23:52:10.334Z,100543.41
2022-08-21T23:54:51.680Z,100542.81
2022-08-21T23:57:40.569Z,100538.91
